sensor_id;sensor_type;location;lat;lon;timestamp;P1;durP1;ratioP1;P2;durP2;ratioP2
1344;SDS011;15375;48.540;9.268;2023-06-04T00:00:31;10.07;;;9.17;;
1344;SDS011;15375;48.540;9.268;2023-06-04T00:02:57;9.77;;;8.83;;
1344;SDS011;15375;48.540;9.268;2023-06-04T00:05:22;12.77;;;10.43;;
1344;SDS011;15375;48.540;9.268;2023-06-04T00:07:50;10.97;;;9.87;;
1344;SDS011;15375;48.540;9.268;2023-06-04T00:10:16;11.23;;;9.83;;
1344;SDS011;15375;48.540;9.268;2023-06-04T00:12:42;11.77;;;9.50;;
1344;SDS011;15375;48.540;9.268;2023-06-04T00:15:07;12.23;;;9.60;;
1344;SDS011;15375;48.540;9.268;2023-06-04T00:17:33;11.20;;;10.00;;
1344;SDS011;15375;48.540;9.268;2023-06-04T00:19:58;11.33;;;10.23;;
1344;SDS011;15375;48.540;9.268;2023-06-04T00:22:24;13.80;;;10.53;;
1344;SDS011;15375;48.540;9.268;2023-06-04T00:24:49;12.13;;;10.80;;
1344;SDS011;15375;48.540;9.268;2023-06-04T00:27:15;11.17;;;10.13;;
1344;SDS011;15375;48.540;9.268;2023-06-04T00:29:40;11.83;;;10.63;;
1344;SDS011;15375;48.540;9.268;2023-06-04T00:32:05;12.00;;;10.80;;
1344;SDS011;15375;48.540;9.268;2023-06-04T00:34:31;11.13;;;10.03;;
1344;SDS011;15375;48.540;9.268;2023-06-04T00:36:56;10.93;;;9.93;;
1344;SDS011;15375;48.540;9.268;2023-06-04T00:39:22;11.30;;;10.20;;
1344;SDS011;15375;48.540;9.268;2023-06-04T00:41:47;12.23;;;11.10;;
1344;SDS011;15375;48.540;9.268;2023-06-04T00:44:12;11.53;;;10.33;;
1344;SDS011;15375;48.540;9.268;2023-06-04T00:46:38;11.93;;;10.50;;
1344;SDS011;15375;48.540;9.268;2023-06-04T00:49:04;10.70;;;9.60;;
1344;SDS011;15375;48.540;9.268;2023-06-04T00:51:31;11.77;;;10.30;;
1344;SDS011;15375;48.540;9.268;2023-06-04T00:53:58;11.40;;;10.10;;
1344;SDS011;15375;48.540;9.268;2023-06-04T00:56:24;11.83;;;10.67;;
1344;SDS011;15375;48.540;9.268;2023-06-04T00:58:49;10.83;;;9.83;;
1344;SDS011;15375;48.540;9.268;2023-06-04T01:01:20;10.57;;;9.50;;
1344;SDS011;15375;48.540;9.268;2023-06-04T01:03:48;11.70;;;10.40;;
1344;SDS011;15375;48.540;9.268;2023-06-04T01:06:21;14.30;;;11.67;;
1344;SDS011;15375;48.540;9.268;2023-06-04T01:09:02;13.00;;;11.70;;
1344;SDS011;15375;48.540;9.268;2023-06-04T01:11:32;13.60;;;9.63;;
1344;SDS011;15375;48.540;9.268;2023-06-04T01:13:59;14.10;;;11.00;;
1344;SDS011;15375;48.540;9.268;2023-06-04T01:16:26;15.60;;;11.47;;
1344;SDS011;15375;48.540;9.268;2023-06-04T01:18:56;13.93;;;10.97;;
1344;SDS011;15375;48.540;9.268;2023-06-04T01:21:25;12.50;;;9.87;;
1344;SDS011;15375;48.540;9.268;2023-06-04T01:23:54;14.43;;;11.87;;
1344;SDS011;15375;48.540;9.268;2023-06-04T01:26:26;13.53;;;11.77;;
1344;SDS011;15375;48.540;9.268;2023-06-04T01:28:56;10.97;;;9.97;;
1344;SDS011;15375;48.540;9.268;2023-06-04T01:31:22;10.50;;;9.40;;
1344;SDS011;15375;48.540;9.268;2023-06-04T01:33:55;17.20;;;11.17;;
1344;SDS011;15375;48.540;9.268;2023-06-04T01:36:22;13.00;;;11.10;;
1344;SDS011;15375;48.540;9.268;2023-06-04T01:38:48;13.20;;;11.87;;
1344;SDS011;15375;48.540;9.268;2023-06-04T01:41:14;12.97;;;11.67;;
1344;SDS011;15375;48.540;9.268;2023-06-04T01:43:39;11.37;;;10.17;;
1344;SDS011;15375;48.540;9.268;2023-06-04T01:46:05;12.60;;;10.97;;
1344;SDS011;15375;48.540;9.268;2023-06-04T01:48:30;13.70;;;9.83;;
1344;SDS011;15375;48.540;9.268;2023-06-04T01:50:57;13.50;;;11.00;;
1344;SDS011;15375;48.540;9.268;2023-06-04T01:53:22;13.40;;;10.90;;
1344;SDS011;15375;48.540;9.268;2023-06-04T01:55:48;11.80;;;10.60;;
1344;SDS011;15375;48.540;9.268;2023-06-04T01:58:17;12.43;;;10.30;;
1344;SDS011;15375;48.540;9.268;2023-06-04T02:00:47;11.40;;;10.30;;
1344;SDS011;15375;48.540;9.268;2023-06-04T02:03:14;11.50;;;10.30;;
1344;SDS011;15375;48.540;9.268;2023-06-04T02:05:40;13.37;;;11.03;;
1344;SDS011;15375;48.540;9.268;2023-06-04T02:08:06;10.90;;;9.70;;
1344;SDS011;15375;48.540;9.268;2023-06-04T02:10:31;15.37;;;11.40;;
1344;SDS011;15375;48.540;9.268;2023-06-04T02:12:58;11.40;;;10.20;;
1344;SDS011;15375;48.540;9.268;2023-06-04T02:15:25;11.17;;;10.03;;
1344;SDS011;15375;48.540;9.268;2023-06-04T02:17:54;12.23;;;10.33;;
1344;SDS011;15375;48.540;9.268;2023-06-04T02:20:24;12.40;;;10.50;;
1344;SDS011;15375;48.540;9.268;2023-06-04T02:22:50;11.83;;;10.63;;
1344;SDS011;15375;48.540;9.268;2023-06-04T02:25:15;11.23;;;10.00;;
1344;SDS011;15375;48.540;9.268;2023-06-04T02:27:41;10.60;;;9.50;;
1344;SDS011;15375;48.540;9.268;2023-06-04T02:30:07;11.67;;;10.37;;
1344;SDS011;15375;48.540;9.268;2023-06-04T02:32:33;10.93;;;9.77;;
1344;SDS011;15375;48.540;9.268;2023-06-04T02:35:01;12.40;;;10.53;;
1344;SDS011;15375;48.540;9.268;2023-06-04T02:37:27;13.00;;;10.90;;
1344;SDS011;15375;48.540;9.268;2023-06-04T02:39:52;14.60;;;11.37;;
1344;SDS011;15375;48.540;9.268;2023-06-04T02:42:18;13.53;;;10.77;;
1344;SDS011;15375;48.540;9.268;2023-06-04T02:44:43;14.87;;;11.57;;
1344;SDS011;15375;48.540;9.268;2023-06-04T02:47:08;11.80;;;10.57;;
1344;SDS011;15375;48.540;9.268;2023-06-04T02:49:34;12.20;;;11.00;;
1344;SDS011;15375;48.540;9.268;2023-06-04T02:51:59;12.43;;;10.00;;
1344;SDS011;15375;48.540;9.268;2023-06-04T02:54:24;10.73;;;9.73;;
1344;SDS011;15375;48.540;9.268;2023-06-04T02:56:50;12.83;;;10.97;;
1344;SDS011;15375;48.540;9.268;2023-06-04T02:59:16;15.63;;;10.70;;
1344;SDS011;15375;48.540;9.268;2023-06-04T03:01:41;13.23;;;10.10;;
1344;SDS011;15375;48.540;9.268;2023-06-04T03:04:07;11.90;;;10.63;;
1344;SDS011;15375;48.540;9.268;2023-06-04T03:06:35;10.60;;;9.50;;
1344;SDS011;15375;48.540;9.268;2023-06-04T03:09:03;15.17;;;11.27;;
1344;SDS011;15375;48.540;9.268;2023-06-04T03:11:28;13.37;;;10.53;;
1344;SDS011;15375;48.540;9.268;2023-06-04T03:13:54;12.23;;;10.93;;
1344;SDS011;15375;48.540;9.268;2023-06-04T03:16:19;11.13;;;9.77;;
1344;SDS011;15375;48.540;9.268;2023-06-04T03:18:45;12.63;;;10.27;;
1344;SDS011;15375;48.540;9.268;2023-06-04T03:21:11;16.33;;;11.67;;
1344;SDS011;15375;48.540;9.268;2023-06-04T03:23:37;12.53;;;9.87;;
1344;SDS011;15375;48.540;9.268;2023-06-04T03:26:03;12.47;;;11.17;;
1344;SDS011;15375;48.540;9.268;2023-06-04T03:28:30;13.07;;;10.37;;
1344;SDS011;15375;48.540;9.268;2023-06-04T03:30:56;17.57;;;11.97;;
1344;SDS011;15375;48.540;9.268;2023-06-04T03:33:23;14.63;;;11.30;;
1344;SDS011;15375;48.540;9.268;2023-06-04T03:35:49;12.60;;;11.23;;
1344;SDS011;15375;48.540;9.268;2023-06-04T03:38:15;14.97;;;11.83;;
1344;SDS011;15375;48.540;9.268;2023-06-04T03:40:41;11.90;;;10.27;;
1344;SDS011;15375;48.540;9.268;2023-06-04T03:43:07;14.40;;;10.10;;
1344;SDS011;15375;48.540;9.268;2023-06-04T03:45:33;11.70;;;9.90;;
1344;SDS011;15375;48.540;9.268;2023-06-04T03:47:58;10.50;;;9.50;;
1344;SDS011;15375;48.540;9.268;2023-06-04T03:50:23;12.80;;;11.17;;
1344;SDS011;15375;48.540;9.268;2023-06-04T03:52:49;11.47;;;10.10;;
1344;SDS011;15375;48.540;9.268;2023-06-04T03:55:15;12.07;;;10.13;;
1344;SDS011;15375;48.540;9.268;2023-06-04T03:57:40;12.80;;;9.83;;
1344;SDS011;15375;48.540;9.268;2023-06-04T04:00:07;13.47;;;9.20;;
1344;SDS011;15375;48.540;9.268;2023-06-04T04:02:37;9.90;;;8.90;;
1344;SDS011;15375;48.540;9.268;2023-06-04T04:05:02;11.00;;;9.90;;
1344;SDS011;15375;48.540;9.268;2023-06-04T04:07:28;14.30;;;10.60;;
1344;SDS011;15375;48.540;9.268;2023-06-04T04:09:53;10.90;;;9.87;;
1344;SDS011;15375;48.540;9.268;2023-06-04T04:12:19;10.17;;;9.13;;
1344;SDS011;15375;48.540;9.268;2023-06-04T04:14:44;11.30;;;9.43;;
1344;SDS011;15375;48.540;9.268;2023-06-04T04:17:09;10.17;;;9.10;;
1344;SDS011;15375;48.540;9.268;2023-06-04T04:19:35;10.37;;;8.60;;
1344;SDS011;15375;48.540;9.268;2023-06-04T04:22:01;9.70;;;8.70;;
1344;SDS011;15375;48.540;9.268;2023-06-04T04:24:26;10.03;;;9.07;;
1344;SDS011;15375;48.540;9.268;2023-06-04T04:26:52;9.60;;;8.60;;
1344;SDS011;15375;48.540;9.268;2023-06-04T04:29:21;12.10;;;8.50;;
1344;SDS011;15375;48.540;9.268;2023-06-04T04:31:50;10.40;;;9.30;;
1344;SDS011;15375;48.540;9.268;2023-06-04T04:34:16;10.60;;;9.43;;
1344;SDS011;15375;48.540;9.268;2023-06-04T04:36:45;13.60;;;9.60;;
1344;SDS011;15375;48.540;9.268;2023-06-04T04:39:16;9.73;;;8.27;;
1344;SDS011;15375;48.540;9.268;2023-06-04T04:41:43;9.67;;;8.77;;
1344;SDS011;15375;48.540;9.268;2023-06-04T04:44:08;9.10;;;8.23;;
1344;SDS011;15375;48.540;9.268;2023-06-04T04:46:33;9.50;;;8.20;;
1344;SDS011;15375;48.540;9.268;2023-06-04T04:48:59;15.37;;;9.20;;
1344;SDS011;15375;48.540;9.268;2023-06-04T04:51:24;11.03;;;9.90;;
1344;SDS011;15375;48.540;9.268;2023-06-04T04:53:50;9.80;;;8.60;;
1344;SDS011;15375;48.540;9.268;2023-06-04T04:56:15;10.47;;;9.30;;
1344;SDS011;15375;48.540;9.268;2023-06-04T04:58:41;9.87;;;8.87;;
1344;SDS011;15375;48.540;9.268;2023-06-04T05:01:07;12.10;;;10.50;;
1344;SDS011;15375;48.540;9.268;2023-06-04T05:03:32;11.03;;;8.30;;
1344;SDS011;15375;48.540;9.268;2023-06-04T05:05:57;13.10;;;9.43;;
1344;SDS011;15375;48.540;9.268;2023-06-04T05:08:23;9.87;;;8.93;;
1344;SDS011;15375;48.540;9.268;2023-06-04T05:10:49;8.13;;;7.37;;
1344;SDS011;15375;48.540;9.268;2023-06-04T05:13:15;9.23;;;8.13;;
1344;SDS011;15375;48.540;9.268;2023-06-04T05:15:41;10.30;;;8.47;;
1344;SDS011;15375;48.540;9.268;2023-06-04T05:18:07;9.30;;;8.33;;
1344;SDS011;15375;48.540;9.268;2023-06-04T05:20:33;8.67;;;7.60;;
1344;SDS011;15375;48.540;9.268;2023-06-04T05:23:00;11.50;;;8.27;;
1344;SDS011;15375;48.540;9.268;2023-06-04T05:25:25;8.30;;;7.50;;
1344;SDS011;15375;48.540;9.268;2023-06-04T05:27:52;8.70;;;7.50;;
1344;SDS011;15375;48.540;9.268;2023-06-04T05:30:19;9.23;;;7.77;;
1344;SDS011;15375;48.540;9.268;2023-06-04T05:32:45;7.23;;;6.53;;
1344;SDS011;15375;48.540;9.268;2023-06-04T05:35:10;5.40;;;4.90;;
1344;SDS011;15375;48.540;9.268;2023-06-04T05:37:36;5.77;;;5.20;;
1344;SDS011;15375;48.540;9.268;2023-06-04T05:40:03;6.90;;;5.30;;
1344;SDS011;15375;48.540;9.268;2023-06-04T05:42:30;5.67;;;5.17;;
1344;SDS011;15375;48.540;9.268;2023-06-04T05:44:56;6.70;;;5.23;;
1344;SDS011;15375;48.540;9.268;2023-06-04T05:47:21;7.13;;;5.67;;
1344;SDS011;15375;48.540;9.268;2023-06-04T05:49:47;7.53;;;6.83;;
1344;SDS011;15375;48.540;9.268;2023-06-04T05:52:12;9.03;;;8.23;;
1344;SDS011;15375;48.540;9.268;2023-06-04T05:54:38;8.93;;;8.20;;
1344;SDS011;15375;48.540;9.268;2023-06-04T05:57:04;8.63;;;7.93;;
1344;SDS011;15375;48.540;9.268;2023-06-04T05:59:30;8.83;;;7.93;;
1344;SDS011;15375;48.540;9.268;2023-06-04T06:01:56;8.40;;;7.70;;
1344;SDS011;15375;48.540;9.268;2023-06-04T06:04:22;8.80;;;8.00;;
1344;SDS011;15375;48.540;9.268;2023-06-04T06:06:47;9.50;;;8.40;;
1344;SDS011;15375;48.540;9.268;2023-06-04T06:09:13;7.93;;;7.13;;
1344;SDS011;15375;48.540;9.268;2023-06-04T06:11:40;9.00;;;7.40;;
1344;SDS011;15375;48.540;9.268;2023-06-04T06:14:06;8.37;;;7.57;;
1344;SDS011;15375;48.540;9.268;2023-06-04T06:16:31;9.80;;;7.50;;
1344;SDS011;15375;48.540;9.268;2023-06-04T06:18:57;7.33;;;6.70;;
1344;SDS011;15375;48.540;9.268;2023-06-04T06:21:23;8.20;;;7.50;;
1344;SDS011;15375;48.540;9.268;2023-06-04T06:23:48;7.20;;;6.50;;
1344;SDS011;15375;48.540;9.268;2023-06-04T06:26:14;6.97;;;6.40;;
1344;SDS011;15375;48.540;9.268;2023-06-04T06:28:39;9.20;;;7.30;;
1344;SDS011;15375;48.540;9.268;2023-06-04T06:31:05;7.40;;;6.63;;
1344;SDS011;15375;48.540;9.268;2023-06-04T06:33:30;7.43;;;6.57;;
1344;SDS011;15375;48.540;9.268;2023-06-04T06:35:56;6.73;;;6.13;;
1344;SDS011;15375;48.540;9.268;2023-06-04T06:38:25;6.87;;;6.27;;
1344;SDS011;15375;48.540;9.268;2023-06-04T06:40:51;8.10;;;7.40;;
1344;SDS011;15375;48.540;9.268;2023-06-04T06:43:16;8.10;;;7.40;;
1344;SDS011;15375;48.540;9.268;2023-06-04T06:45:41;8.23;;;6.90;;
1344;SDS011;15375;48.540;9.268;2023-06-04T06:48:07;8.40;;;6.27;;
1344;SDS011;15375;48.540;9.268;2023-06-04T06:50:33;6.53;;;5.13;;
1344;SDS011;15375;48.540;9.268;2023-06-04T06:53:01;6.43;;;5.70;;
1344;SDS011;15375;48.540;9.268;2023-06-04T06:55:27;6.17;;;5.57;;
1344;SDS011;15375;48.540;9.268;2023-06-04T06:57:52;6.20;;;5.60;;
1344;SDS011;15375;48.540;9.268;2023-06-04T07:00:17;8.27;;;5.70;;
1344;SDS011;15375;48.540;9.268;2023-06-04T07:02:43;6.20;;;5.60;;
1344;SDS011;15375;48.540;9.268;2023-06-04T07:05:09;7.43;;;4.30;;
1344;SDS011;15375;48.540;9.268;2023-06-04T07:07:35;5.27;;;4.80;;
1344;SDS011;15375;48.540;9.268;2023-06-04T07:10:01;6.00;;;4.80;;
1344;SDS011;15375;48.540;9.268;2023-06-04T07:12:28;6.43;;;5.90;;
1344;SDS011;15375;48.540;9.268;2023-06-04T07:14:54;7.60;;;5.50;;
1344;SDS011;15375;48.540;9.268;2023-06-04T07:17:20;5.37;;;4.93;;
1344;SDS011;15375;48.540;9.268;2023-06-04T07:19:46;5.13;;;4.63;;
1344;SDS011;15375;48.540;9.268;2023-06-04T07:22:12;5.50;;;5.00;;
1344;SDS011;15375;48.540;9.268;2023-06-04T07:24:37;5.57;;;4.80;;
1344;SDS011;15375;48.540;9.268;2023-06-04T07:27:09;4.73;;;4.30;;
1344;SDS011;15375;48.540;9.268;2023-06-04T07:29:35;4.67;;;4.27;;
1344;SDS011;15375;48.540;9.268;2023-06-04T07:32:01;5.37;;;4.87;;
1344;SDS011;15375;48.540;9.268;2023-06-04T07:34:26;4.67;;;4.27;;
1344;SDS011;15375;48.540;9.268;2023-06-04T07:36:51;7.23;;;4.83;;
1344;SDS011;15375;48.540;9.268;2023-06-04T07:39:17;5.37;;;4.80;;
1344;SDS011;15375;48.540;9.268;2023-06-04T07:41:42;6.27;;;4.90;;
1344;SDS011;15375;48.540;9.268;2023-06-04T07:44:08;4.87;;;4.47;;
1344;SDS011;15375;48.540;9.268;2023-06-04T07:46:33;4.43;;;4.03;;
1344;SDS011;15375;48.540;9.268;2023-06-04T07:48:58;5.03;;;4.07;;
1344;SDS011;15375;48.540;9.268;2023-06-04T07:51:24;4.50;;;3.53;;
1344;SDS011;15375;48.540;9.268;2023-06-04T07:53:50;4.30;;;3.90;;
1344;SDS011;15375;48.540;9.268;2023-06-04T07:56:15;4.53;;;3.63;;
1344;SDS011;15375;48.540;9.268;2023-06-04T07:58:41;4.50;;;3.50;;
1344;SDS011;15375;48.540;9.268;2023-06-04T08:01:06;4.27;;;3.90;;
1344;SDS011;15375;48.540;9.268;2023-06-04T08:03:32;9.27;;;4.70;;
1344;SDS011;15375;48.540;9.268;2023-06-04T08:05:57;8.20;;;4.53;;
1344;SDS011;15375;48.540;9.268;2023-06-04T08:08:23;4.10;;;3.67;;
1344;SDS011;15375;48.540;9.268;2023-06-04T08:10:48;5.47;;;4.27;;
1344;SDS011;15375;48.540;9.268;2023-06-04T08:13:14;6.30;;;4.37;;
1344;SDS011;15375;48.540;9.268;2023-06-04T08:15:40;3.90;;;3.60;;
1344;SDS011;15375;48.540;9.268;2023-06-04T08:18:06;4.40;;;4.00;;
1344;SDS011;15375;48.540;9.268;2023-06-04T08:20:31;6.90;;;4.50;;
1344;SDS011;15375;48.540;9.268;2023-06-04T08:22:59;5.43;;;4.03;;
1344;SDS011;15375;48.540;9.268;2023-06-04T08:25:25;5.33;;;3.73;;
1344;SDS011;15375;48.540;9.268;2023-06-04T08:27:50;3.90;;;3.57;;
1344;SDS011;15375;48.540;9.268;2023-06-04T08:30:16;4.43;;;4.03;;
1344;SDS011;15375;48.540;9.268;2023-06-04T08:32:41;6.90;;;3.80;;
1344;SDS011;15375;48.540;9.268;2023-06-04T08:35:07;8.27;;;4.40;;
1344;SDS011;15375;48.540;9.268;2023-06-04T08:37:33;3.60;;;3.30;;
1344;SDS011;15375;48.540;9.268;2023-06-04T08:39:58;4.20;;;3.60;;
1344;SDS011;15375;48.540;9.268;2023-06-04T08:42:30;9.00;;;4.93;;
1344;SDS011;15375;48.540;9.268;2023-06-04T08:45:00;4.87;;;4.30;;
1344;SDS011;15375;48.540;9.268;2023-06-04T08:47:25;3.97;;;3.67;;
1344;SDS011;15375;48.540;9.268;2023-06-04T08:49:54;5.27;;;3.67;;
1344;SDS011;15375;48.540;9.268;2023-06-04T08:52:23;4.60;;;4.20;;
1344;SDS011;15375;48.540;9.268;2023-06-04T08:54:49;4.87;;;3.73;;
1344;SDS011;15375;48.540;9.268;2023-06-04T08:57:18;4.33;;;4.00;;
1344;SDS011;15375;48.540;9.268;2023-06-04T08:59:47;8.07;;;3.93;;
1344;SDS011;15375;48.540;9.268;2023-06-04T09:02:16;5.27;;;3.40;;
1344;SDS011;15375;48.540;9.268;2023-06-04T09:04:43;3.77;;;3.30;;
1344;SDS011;15375;48.540;9.268;2023-06-04T09:07:13;4.27;;;3.73;;
1344;SDS011;15375;48.540;9.268;2023-06-04T09:09:42;5.70;;;3.77;;
1344;SDS011;15375;48.540;9.268;2023-06-04T09:12:11;4.30;;;3.60;;
1344;SDS011;15375;48.540;9.268;2023-06-04T09:14:44;5.60;;;4.47;;
1344;SDS011;15375;48.540;9.268;2023-06-04T09:17:09;3.93;;;3.63;;
1344;SDS011;15375;48.540;9.268;2023-06-04T09:19:35;5.23;;;3.77;;
1344;SDS011;15375;48.540;9.268;2023-06-04T09:22:00;4.13;;;3.73;;
1344;SDS011;15375;48.540;9.268;2023-06-04T09:24:42;4.33;;;3.93;;
1344;SDS011;15375;48.540;9.268;2023-06-04T09:27:12;5.03;;;4.33;;
1344;SDS011;15375;48.540;9.268;2023-06-04T09:29:39;6.43;;;4.40;;
1344;SDS011;15375;48.540;9.268;2023-06-04T09:32:05;5.20;;;4.00;;
1344;SDS011;15375;48.540;9.268;2023-06-04T09:34:30;3.97;;;3.60;;
1344;SDS011;15375;48.540;9.268;2023-06-04T09:36:56;6.43;;;4.33;;
1344;SDS011;15375;48.540;9.268;2023-06-04T09:39:22;7.43;;;3.90;;
1344;SDS011;15375;48.540;9.268;2023-06-04T09:42:01;4.17;;;3.77;;
1344;SDS011;15375;48.540;9.268;2023-06-04T09:44:28;8.03;;;4.57;;
1344;SDS011;15375;48.540;9.268;2023-06-04T09:46:58;4.93;;;4.37;;
1344;SDS011;15375;48.540;9.268;2023-06-04T09:49:23;6.40;;;4.17;;
1344;SDS011;15375;48.540;9.268;2023-06-04T09:51:49;5.67;;;3.97;;
1344;SDS011;15375;48.540;9.268;2023-06-04T09:54:15;4.00;;;3.60;;
1344;SDS011;15375;48.540;9.268;2023-06-04T09:56:41;6.93;;;5.13;;
1344;SDS011;15375;48.540;9.268;2023-06-04T09:59:10;3.97;;;3.63;;
1344;SDS011;15375;48.540;9.268;2023-06-04T10:01:38;6.73;;;5.10;;
1344;SDS011;15375;48.540;9.268;2023-06-04T10:04:07;4.00;;;3.63;;
1344;SDS011;15375;48.540;9.268;2023-06-04T10:06:34;4.80;;;4.07;;
1344;SDS011;15375;48.540;9.268;2023-06-04T10:09:04;4.27;;;3.87;;
1344;SDS011;15375;48.540;9.268;2023-06-04T10:11:34;8.27;;;4.63;;
1344;SDS011;15375;48.540;9.268;2023-06-04T10:14:03;6.00;;;5.03;;
1344;SDS011;15375;48.540;9.268;2023-06-04T10:16:34;6.87;;;4.50;;
1344;SDS011;15375;48.540;9.268;2023-06-04T10:19:04;4.77;;;4.30;;
1344;SDS011;15375;48.540;9.268;2023-06-04T10:21:32;8.27;;;5.17;;
1344;SDS011;15375;48.540;9.268;2023-06-04T10:23:59;4.70;;;4.20;;
1344;SDS011;15375;48.540;9.268;2023-06-04T10:26:25;5.97;;;4.57;;
1344;SDS011;15375;48.540;9.268;2023-06-04T10:28:51;5.13;;;4.63;;
1344;SDS011;15375;48.540;9.268;2023-06-04T10:31:17;6.03;;;4.97;;
1344;SDS011;15375;48.540;9.268;2023-06-04T10:33:43;4.47;;;4.17;;
1344;SDS011;15375;48.540;9.268;2023-06-04T10:39:07;10.13;;;5.30;;
1344;SDS011;15375;48.540;9.268;2023-06-04T10:41:33;5.80;;;5.30;;
1344;SDS011;15375;48.540;9.268;2023-06-04T10:44:00;6.30;;;5.03;;
1344;SDS011;15375;48.540;9.268;2023-06-04T10:46:36;5.10;;;4.70;;
1344;SDS011;15375;48.540;9.268;2023-06-04T10:49:11;5.60;;;5.10;;
1344;SDS011;15375;48.540;9.268;2023-06-04T10:51:37;5.77;;;5.07;;
1344;SDS011;15375;48.540;9.268;2023-06-04T10:54:03;5.30;;;4.80;;
1344;SDS011;15375;48.540;9.268;2023-06-04T10:56:33;6.00;;;4.30;;
1344;SDS011;15375;48.540;9.268;2023-06-04T10:59:16;6.53;;;5.93;;
1344;SDS011;15375;48.540;9.268;2023-06-04T11:01:42;8.90;;;5.90;;
1344;SDS011;15375;48.540;9.268;2023-06-04T11:04:18;5.37;;;4.87;;
1344;SDS011;15375;48.540;9.268;2023-06-04T11:07:04;6.63;;;6.13;;
1344;SDS011;15375;48.540;9.268;2023-06-04T11:09:35;6.40;;;5.80;;
1344;SDS011;15375;48.540;9.268;2023-06-04T11:12:02;5.40;;;5.00;;
1344;SDS011;15375;48.540;9.268;2023-06-04T11:14:29;6.40;;;5.90;;
1344;SDS011;15375;48.540;9.268;2023-06-04T11:16:54;7.33;;;5.53;;
1344;SDS011;15375;48.540;9.268;2023-06-04T11:19:20;6.03;;;5.20;;
1344;SDS011;15375;48.540;9.268;2023-06-04T11:21:45;5.73;;;5.23;;
1344;SDS011;15375;48.540;9.268;2023-06-04T11:24:14;6.10;;;5.50;;
1344;SDS011;15375;48.540;9.268;2023-06-04T11:26:41;7.97;;;5.60;;
1344;SDS011;15375;48.540;9.268;2023-06-04T11:29:07;7.73;;;5.80;;
1344;SDS011;15375;48.540;9.268;2023-06-04T11:31:46;7.40;;;6.00;;
1344;SDS011;15375;48.540;9.268;2023-06-04T11:34:25;6.50;;;5.77;;
1344;SDS011;15375;48.540;9.268;2023-06-04T11:36:51;9.53;;;5.83;;
1344;SDS011;15375;48.540;9.268;2023-06-04T11:39:20;8.27;;;6.20;;
1344;SDS011;15375;48.540;9.268;2023-06-04T11:41:46;6.20;;;5.50;;
1344;SDS011;15375;48.540;9.268;2023-06-04T11:44:12;7.00;;;6.30;;
1344;SDS011;15375;48.540;9.268;2023-06-04T11:46:41;6.17;;;5.57;;
1344;SDS011;15375;48.540;9.268;2023-06-04T11:49:11;6.83;;;6.33;;
1344;SDS011;15375;48.540;9.268;2023-06-04T11:51:45;5.77;;;5.30;;
1344;SDS011;15375;48.540;9.268;2023-06-04T11:54:12;7.03;;;6.20;;
1344;SDS011;15375;48.540;9.268;2023-06-04T11:56:38;6.60;;;6.10;;
1344;SDS011;15375;48.540;9.268;2023-06-04T11:59:04;6.37;;;5.77;;
1344;SDS011;15375;48.540;9.268;2023-06-04T12:01:31;6.20;;;5.70;;
1344;SDS011;15375;48.540;9.268;2023-06-04T12:03:57;6.90;;;5.47;;
1344;SDS011;15375;48.540;9.268;2023-06-04T12:06:23;5.83;;;5.30;;
1344;SDS011;15375;48.540;9.268;2023-06-04T12:08:49;8.73;;;5.70;;
1344;SDS011;15375;48.540;9.268;2023-06-04T12:11:25;6.63;;;5.97;;
1344;SDS011;15375;48.540;9.268;2023-06-04T12:13:59;7.30;;;5.40;;
1344;SDS011;15375;48.540;9.268;2023-06-04T12:16:31;7.10;;;6.40;;
1344;SDS011;15375;48.540;9.268;2023-06-04T12:19:06;6.90;;;6.30;;
1344;SDS011;15375;48.540;9.268;2023-06-04T12:21:35;7.20;;;5.00;;
1344;SDS011;15375;48.540;9.268;2023-06-04T12:24:13;6.83;;;6.23;;
1344;SDS011;15375;48.540;9.268;2023-06-04T12:26:40;9.27;;;6.10;;
1344;SDS011;15375;48.540;9.268;2023-06-04T12:29:12;7.13;;;6.00;;
1344;SDS011;15375;48.540;9.268;2023-06-04T12:31:43;7.57;;;6.57;;
1344;SDS011;15375;48.540;9.268;2023-06-04T12:34:10;6.10;;;5.60;;
1344;SDS011;15375;48.540;9.268;2023-06-04T12:36:37;7.20;;;6.60;;
1344;SDS011;15375;48.540;9.268;2023-06-04T12:39:03;7.00;;;6.30;;
1344;SDS011;15375;48.540;9.268;2023-06-04T12:41:30;8.80;;;6.57;;
1344;SDS011;15375;48.540;9.268;2023-06-04T12:43:58;6.70;;;6.00;;
1344;SDS011;15375;48.540;9.268;2023-06-04T12:46:24;6.60;;;6.10;;
1344;SDS011;15375;48.540;9.268;2023-06-04T12:48:50;9.33;;;5.83;;
1344;SDS011;15375;48.540;9.268;2023-06-04T12:51:16;7.87;;;6.13;;
1344;SDS011;15375;48.540;9.268;2023-06-04T12:53:42;7.07;;;6.50;;
1344;SDS011;15375;48.540;9.268;2023-06-04T12:56:07;7.00;;;6.30;;
1344;SDS011;15375;48.540;9.268;2023-06-04T12:58:33;6.37;;;5.80;;
1344;SDS011;15375;48.540;9.268;2023-06-04T13:00:59;7.37;;;6.70;;
1344;SDS011;15375;48.540;9.268;2023-06-04T13:03:25;7.20;;;5.83;;
1344;SDS011;15375;48.540;9.268;2023-06-04T13:05:51;6.03;;;5.40;;
1344;SDS011;15375;48.540;9.268;2023-06-04T13:08:18;8.00;;;5.73;;
1344;SDS011;15375;48.540;9.268;2023-06-04T13:10:46;6.57;;;5.60;;
1344;SDS011;15375;48.540;9.268;2023-06-04T13:13:12;6.60;;;6.10;;
1344;SDS011;15375;48.540;9.268;2023-06-04T13:15:40;6.80;;;6.17;;
1344;SDS011;15375;48.540;9.268;2023-06-04T13:18:06;7.07;;;6.47;;
1344;SDS011;15375;48.540;9.268;2023-06-04T13:20:31;7.33;;;6.70;;
1344;SDS011;15375;48.540;9.268;2023-06-04T13:22:57;7.93;;;5.80;;
1344;SDS011;15375;48.540;9.268;2023-06-04T13:25:22;7.00;;;6.40;;
1344;SDS011;15375;48.540;9.268;2023-06-04T13:27:48;6.57;;;5.97;;
1344;SDS011;15375;48.540;9.268;2023-06-04T13:30:13;6.33;;;5.73;;
1344;SDS011;15375;48.540;9.268;2023-06-04T13:32:39;6.90;;;6.30;;
1344;SDS011;15375;48.540;9.268;2023-06-04T13:35:04;7.73;;;5.83;;
1344;SDS011;15375;48.540;9.268;2023-06-04T13:37:30;6.30;;;5.83;;
1344;SDS011;15375;48.540;9.268;2023-06-04T13:39:55;6.73;;;6.03;;
1344;SDS011;15375;48.540;9.268;2023-06-04T13:42:21;6.23;;;5.60;;
1344;SDS011;15375;48.540;9.268;2023-06-04T13:44:46;6.13;;;5.40;;
1344;SDS011;15375;48.540;9.268;2023-06-04T13:47:12;8.47;;;5.90;;
1344;SDS011;15375;48.540;9.268;2023-06-04T13:49:37;6.70;;;6.13;;
1344;SDS011;15375;48.540;9.268;2023-06-04T13:52:02;8.67;;;6.03;;
1344;SDS011;15375;48.540;9.268;2023-06-04T13:54:28;5.90;;;5.40;;
1344;SDS011;15375;48.540;9.268;2023-06-04T13:56:53;6.40;;;5.80;;
1344;SDS011;15375;48.540;9.268;2023-06-04T13:59:18;5.47;;;5.00;;
1344;SDS011;15375;48.540;9.268;2023-06-04T14:01:44;6.97;;;6.13;;
1344;SDS011;15375;48.540;9.268;2023-06-04T14:04:09;6.43;;;5.93;;
1344;SDS011;15375;48.540;9.268;2023-06-04T14:06:36;6.37;;;5.83;;
1344;SDS011;15375;48.540;9.268;2023-06-04T14:09:02;6.03;;;5.53;;
1344;SDS011;15375;48.540;9.268;2023-06-04T14:11:28;6.10;;;5.50;;
1344;SDS011;15375;48.540;9.268;2023-06-04T14:13:54;5.93;;;5.27;;
1344;SDS011;15375;48.540;9.268;2023-06-04T14:16:20;5.33;;;4.90;;
1344;SDS011;15375;48.540;9.268;2023-06-04T14:18:45;6.80;;;6.20;;
1344;SDS011;15375;48.540;9.268;2023-06-04T14:21:10;6.67;;;5.77;;
1344;SDS011;15375;48.540;9.268;2023-06-04T14:23:36;8.33;;;6.17;;
1344;SDS011;15375;48.540;9.268;2023-06-04T14:26:01;7.13;;;6.00;;
1344;SDS011;15375;48.540;9.268;2023-06-04T14:28:27;5.70;;;5.20;;
1344;SDS011;15375;48.540;9.268;2023-06-04T14:30:52;6.73;;;6.10;;
1344;SDS011;15375;48.540;9.268;2023-06-04T14:33:17;6.20;;;5.63;;
1344;SDS011;15375;48.540;9.268;2023-06-04T14:35:43;6.50;;;5.37;;
1344;SDS011;15375;48.540;9.268;2023-06-04T14:38:12;6.20;;;5.60;;
1344;SDS011;15375;48.540;9.268;2023-06-04T14:40:39;6.20;;;4.80;;
1344;SDS011;15375;48.540;9.268;2023-06-04T14:43:05;6.13;;;5.53;;
1344;SDS011;15375;48.540;9.268;2023-06-04T14:45:30;5.07;;;4.63;;
1344;SDS011;15375;48.540;9.268;2023-06-04T14:47:55;5.10;;;4.70;;
1344;SDS011;15375;48.540;9.268;2023-06-04T14:50:21;6.37;;;5.77;;
1344;SDS011;15375;48.540;9.268;2023-06-04T14:52:47;6.47;;;5.87;;